Flight Track Log - Related Links

Times and Time Zones

All times are in EDT time to prevent confusion due to time zone crossing. See the N53NW flight status page for this flight to view local times or setup timezone preferences in your user account.

Time Position Orientation Groundspeed Altitude Reporting Facility
EDT Latitude Longitude Course Direction KTS MPH feet Rate Location/Type
Tue 03:42:25 PM 33.6500 -84.4833 349° North 222 255 4,800  Level Atlanta TRACON
Tue 03:43:26 PM 33.6667 -84.5667 284° West 257 296 8,600 2,053 Climbing Atlanta TRACON
Tue 03:44:57 PM 33.7658 -84.6136 339° North 260 299 10,000 874 Climbing Atlanta Center
Tue 03:45:57 PM 33.8431 -84.6192 357° North 266 306 10,800 1,750 Climbing Atlanta Center
Tue 03:46:57 PM 33.9222 -84.6247 357° North 281 323 13,500 2,800 Climbing Atlanta Center
Tue 03:47:00 PM 34.0614 -84.5281 349° North  Level FlightAware Approximate
Tue 03:47:57 PM 34.0119 -84.6303 357° North 286 329 16,400  Level Atlanta Center
Tue 03:48:57 PM 34.0956 -84.6308 360° North 292 336 19,000 2,600 Climbing Atlanta Center
Tue 03:49:57 PM 34.1872 -84.6389 356° North 312 359 21,600 2,450 Climbing Atlanta Center
Tue 03:50:57 PM 34.2750 -84.6497 354° North 312 359 23,900 2,150 Climbing Atlanta Center
Tue 03:51:57 PM 34.3686 -84.6631 353° North 318 366 25,900 2,000 Climbing Atlanta Center
Tue 03:52:57 PM 34.4647 -84.6711 356° North 337 388 27,900 1,850 Climbing Atlanta Center
Tue 03:53:57 PM 34.5481 -84.6819 354° North 343 395 29,600 1,950 Climbing Atlanta Center
Tue 03:54:57 PM 34.6442 -84.6903 356° North 349 402 31,800 2,100 Climbing Atlanta Center
Tue 03:55:57 PM 34.7464 -84.7036 354° North 338 389 33,800 1,100 Climbing Atlanta Center
Tue 03:56:57 PM 34.8483 -84.7169 354° North 338 389 34,000 100 Climbing Atlanta Center
Tue 03:57:57 PM 34.9506 -84.7306 354° North 360 414 34,000  Level Atlanta Center
Tue 03:58:57 PM 35.0550 -84.7417 355° North 366 421 34,000  Level Atlanta Center
Tue 03:59:57 PM 35.1569 -84.7525 355° North 366 421 34,000  Level Atlanta Center
Tue 04:00:57 PM 35.2633 -84.7664 354° North 371 427 34,000  Level Atlanta Center
Tue 04:01:57 PM 35.3697 -84.7772 355° North 371 427 34,000 500 Level Atlanta Center
Tue 04:02:57 PM 35.4739 -84.7911 354° North 371 427 35,000 1,200 Climbing Atlanta Center
Tue 04:03:57 PM 35.5761 -84.8022 355° North 365 420 36,400 1,450 Climbing Atlanta Center
Tue 04:04:57 PM 35.6761 -84.8133 355° North 365 420 37,900 1,150 Climbing Atlanta Center
Tue 04:05:57 PM 35.7617 -84.8244 354° North 365 420 38,700 681 Climbing Atlanta Center
Tue 04:08:02 PM 35.9967 -84.8517 355° North 377 434 40,000 417 Climbing Indianapolis Center
Tue 04:09:04 PM 36.1061 -84.8650 354° North 394 453 40,000  Level Indianapolis Center
Tue 04:10:06 PM 36.2156 -84.8778 355° North 395 455 40,000  Level Indianapolis Center
Tue 04:11:08 PM 36.3258 -84.8919 354° North 398 458 40,000  Level Indianapolis Center
Tue 04:12:10 PM 36.4375 -84.9053 355° North 401 461 40,000  Level Indianapolis Center
Tue 04:13:12 PM 36.5492 -84.9192 354° North 402 463 40,000  Level Indianapolis Center
Tue 04:14:15 PM 36.6836 -84.9361 354° North 404 465 40,000  Level Indianapolis Center
Tue 04:15:17 PM 36.7947 -84.9506 354° North 403 464 40,000  Level Indianapolis Center
Tue 04:16:19 PM 36.9072 -84.9636 355° North 404 465 40,000  Level Indianapolis Center
Tue 04:17:21 PM 37.0186 -84.9781 354° North 403 464 40,000  Level Indianapolis Center
Tue 04:18:23 PM 37.1400 -84.9942 354° North 403 464 40,000  Level Indianapolis Center
Tue 04:19:25 PM 37.2531 -85.0069 355° North 404 465 40,000  Level Indianapolis Center
Tue 04:20:27 PM 37.3642 -85.0214 354° North 400 460 40,000  Level Indianapolis Center
Tue 04:21:29 PM 37.4722 -85.0344 355° North 390 449 40,000  Level Indianapolis Center
Tue 04:22:31 PM 37.5969 -85.0503 354° North 385 443 40,000  Level Indianapolis Center
Tue 04:23:33 PM 37.7033 -85.0642 354° North 383 441 40,000 -242 Level Indianapolis Center
Tue 04:24:35 PM 37.8100 -85.0775 354° North 384 442 39,500 -871 Descending Indianapolis Center
Tue 04:25:37 PM 37.9197 -85.0903 355° North 391 450 38,200 -1,210 Descending Indianapolis Center
Tue 04:26:39 PM 38.0267 -85.1036 354° North 386 444 37,000 -1,113 Descending Indianapolis Center
Tue 04:27:41 PM 38.1317 -85.1181 354° North 380 437 35,900 -1,258 Descending Indianapolis Center
Tue 04:28:43 PM 38.2567 -85.1336 354° North 384 442 34,400 -1,306 Descending Indianapolis Center
Tue 04:29:45 PM 38.3647 -85.1467 355° North 387 445 33,200 -1,113 Descending Indianapolis Center
Tue 04:30:47 PM 38.4744 -85.1617 354° North 394 453 32,100 -1,403 Descending Indianapolis Center
Tue 04:31:49 PM 38.5867 -85.1761 354° North 402 463 30,300 -1,742 Descending Indianapolis Center
Tue 04:32:51 PM 38.6964 -85.1897 354° North 402 463 28,500 -1,728 Descending Indianapolis Center
Tue 04:33:54 PM 38.8050 -85.2028 355° North 396 456 26,700 -1,872 Descending Indianapolis Center
Tue 04:34:56 PM 38.9319 -85.2200 354° North 385 443 24,600 -1,887 Descending Indianapolis Center
Tue 04:35:58 PM 39.0342 -85.2325 355° North 375 432 22,800 -1,742 Descending Indianapolis Center
Tue 04:37:00 PM 39.1322 -85.2467 354° North 360 414 21,000 -1,790 Descending Indianapolis Center
Tue 04:38:02 PM 39.2281 -85.2714 349° North 353 406 19,100 -1,984 Descending Indianapolis Center
Tue 04:39:04 PM 39.3208 -85.3061 344° North 351 404 16,900 -2,371 Descending Indianapolis Center
Tue 04:40:06 PM 39.4258 -85.3447 344° North 332 382 14,200 -1,403 Descending Indianapolis Center
Tue 04:41:08 PM 39.5053 -85.3656 349° North 298 343 14,000 -145 Descending Indianapolis Center
Tue 04:42:10 PM 39.5864 -85.3689 358° North 292 336 13,900 -1,161 Descending Indianapolis Center
Tue 04:43:12 PM 39.6697 -85.3717 359° North 299 344 11,600 -1,887 Descending Indianapolis Center
Tue 04:44:14 PM 39.7475 -85.3756 358° North 286 329 10,000 -1,790 Descending Indianapolis Center
Tue 04:45:16 PM 39.8297 -85.3789 358° North 258 297 7,900 -2,371 Descending Indianapolis Center
Tue 04:46:18 PM 39.8994 -85.3828 358° North 252 290 5,100 -2,371 Descending Indianapolis Center
Tue 04:47:20 PM 39.9700 -85.3842 359° North 254 292 3,000 -1,016 Descending Indianapolis Center
Tue 04:48:22 PM 40.0342 -85.3886 357° North 247 284 3,000  Level Indianapolis Center
Tue 04:49:24 PM 40.0956 -85.3914 358° North 236 272 3,000 -290 Level Indianapolis Center
Tue 04:50:26 PM 40.1514 -85.4019 352° North 221 254 2,400 -532 Descending Indianapolis Center
Tue 04:51:28 PM 40.1997 -85.4172 346° North 197 227 1,900 -484 Descending Indianapolis Center

Login

Don't have an account? Register now (free) for customized features, flight alerts, and more!